sensor_id;sensor_type;location;lat;lon;timestamp;P1;durP1;ratioP1;P2;durP2;ratioP2
7767;SDS011;3928;42.626;23.382;2023-03-14T00:02:20;11.53;;;7.90;;
7767;SDS011;3928;42.626;23.382;2023-03-14T00:04:47;12.90;;;7.93;;
7767;SDS011;3928;42.626;23.382;2023-03-14T00:07:15;8.63;;;7.33;;
7767;SDS011;3928;42.626;23.382;2023-03-14T00:09:42;13.00;;;6.77;;
7767;SDS011;3928;42.626;23.382;2023-03-14T00:12:09;7.47;;;5.40;;
7767;SDS011;3928;42.626;23.382;2023-03-14T00:14:35;8.60;;;5.60;;
7767;SDS011;3928;42.626;23.382;2023-03-14T00:17:02;11.00;;;6.10;;
7767;SDS011;3928;42.626;23.382;2023-03-14T00:19:29;9.07;;;6.10;;
7767;SDS011;3928;42.626;23.382;2023-03-14T00:21:55;6.60;;;5.43;;
7767;SDS011;3928;42.626;23.382;2023-03-14T00:24:24;6.97;;;5.90;;
7767;SDS011;3928;42.626;23.382;2023-03-14T00:26:50;8.40;;;5.20;;
7767;SDS011;3928;42.626;23.382;2023-03-14T00:29:17;7.00;;;5.23;;
7767;SDS011;3928;42.626;23.382;2023-03-14T00:31:44;7.60;;;5.13;;
7767;SDS011;3928;42.626;23.382;2023-03-14T00:34:11;6.67;;;5.43;;
7767;SDS011;3928;42.626;23.382;2023-03-14T00:36:37;6.93;;;5.57;;
7767;SDS011;3928;42.626;23.382;2023-03-14T00:39:04;9.50;;;5.67;;
7767;SDS011;3928;42.626;23.382;2023-03-14T00:41:32;7.67;;;5.57;;
7767;SDS011;3928;42.626;23.382;2023-03-14T00:43:59;6.10;;;5.50;;
7767;SDS011;3928;42.626;23.382;2023-03-14T00:46:26;7.13;;;5.93;;
7767;SDS011;3928;42.626;23.382;2023-03-14T00:48:52;5.73;;;5.10;;
7767;SDS011;3928;42.626;23.382;2023-03-14T00:51:19;9.83;;;5.97;;
7767;SDS011;3928;42.626;23.382;2023-03-14T00:53:46;9.97;;;5.73;;
7767;SDS011;3928;42.626;23.382;2023-03-14T00:56:13;7.80;;;5.73;;
7767;SDS011;3928;42.626;23.382;2023-03-14T00:58:41;5.90;;;5.27;;
7767;SDS011;3928;42.626;23.382;2023-03-14T01:01:08;8.43;;;5.20;;
7767;SDS011;3928;42.626;23.382;2023-03-14T01:03:37;6.83;;;5.03;;
7767;SDS011;3928;42.626;23.382;2023-03-14T01:06:11;9.57;;;5.50;;
7767;SDS011;3928;42.626;23.382;2023-03-14T01:08:42;9.67;;;6.20;;
7767;SDS011;3928;42.626;23.382;2023-03-14T01:11:10;5.57;;;4.97;;
7767;SDS011;3928;42.626;23.382;2023-03-14T01:13:39;6.43;;;4.73;;
7767;SDS011;3928;42.626;23.382;2023-03-14T01:16:08;6.53;;;5.10;;
7767;SDS011;3928;42.626;23.382;2023-03-14T01:18:37;6.17;;;5.43;;
7767;SDS011;3928;42.626;23.382;2023-03-14T01:21:09;6.83;;;5.33;;
7767;SDS011;3928;42.626;23.382;2023-03-14T01:23:37;7.87;;;5.20;;
7767;SDS011;3928;42.626;23.382;2023-03-14T01:26:04;7.80;;;4.87;;
7767;SDS011;3928;42.626;23.382;2023-03-14T01:28:35;7.77;;;5.30;;
7767;SDS011;3928;42.626;23.382;2023-03-14T01:31:02;7.90;;;5.73;;
7767;SDS011;3928;42.626;23.382;2023-03-14T01:33:31;6.37;;;5.63;;
7767;SDS011;3928;42.626;23.382;2023-03-14T01:35:58;5.90;;;5.00;;
7767;SDS011;3928;42.626;23.382;2023-03-14T01:38:27;6.23;;;5.20;;
7767;SDS011;3928;42.626;23.382;2023-03-14T01:40:54;7.57;;;6.20;;
7767;SDS011;3928;42.626;23.382;2023-03-14T01:43:21;7.17;;;6.03;;
7767;SDS011;3928;42.626;23.382;2023-03-14T01:46:02;7.30;;;6.10;;
7767;SDS011;3928;42.626;23.382;2023-03-14T01:48:46;11.20;;;7.60;;
7767;SDS011;3928;42.626;23.382;2023-03-14T01:51:19;19.43;;;8.13;;
7767;SDS011;3928;42.626;23.382;2023-03-14T01:53:51;15.03;;;8.40;;
7767;SDS011;3928;42.626;23.382;2023-03-14T01:56:22;13.83;;;8.53;;
7767;SDS011;3928;42.626;23.382;2023-03-14T01:58:49;15.00;;;8.60;;
7767;SDS011;3928;42.626;23.382;2023-03-14T02:01:19;12.70;;;8.67;;
7767;SDS011;3928;42.626;23.382;2023-03-14T02:03:50;15.90;;;10.17;;
7767;SDS011;3928;42.626;23.382;2023-03-14T02:06:21;18.60;;;10.00;;
7767;SDS011;3928;42.626;23.382;2023-03-14T02:08:52;18.40;;;9.37;;
7767;SDS011;3928;42.626;23.382;2023-03-14T02:11:20;21.10;;;11.27;;
7767;SDS011;3928;42.626;23.382;2023-03-14T02:13:48;17.67;;;10.23;;
7767;SDS011;3928;42.626;23.382;2023-03-14T02:16:15;17.10;;;10.47;;
7767;SDS011;3928;42.626;23.382;2023-03-14T02:18:42;19.07;;;10.20;;
7767;SDS011;3928;42.626;23.382;2023-03-14T02:21:13;17.70;;;10.07;;
7767;SDS011;3928;42.626;23.382;2023-03-14T02:23:47;19.37;;;11.70;;
7767;SDS011;3928;42.626;23.382;2023-03-14T02:26:25;17.80;;;10.73;;
7767;SDS011;3928;42.626;23.382;2023-03-14T02:28:59;18.47;;;11.87;;
7767;SDS011;3928;42.626;23.382;2023-03-14T02:31:26;15.87;;;10.80;;
7767;SDS011;3928;42.626;23.382;2023-03-14T02:33:52;17.70;;;9.83;;
7767;SDS011;3928;42.626;23.382;2023-03-14T02:36:21;15.40;;;8.73;;
7767;SDS011;3928;42.626;23.382;2023-03-14T02:38:50;11.07;;;7.20;;
7767;SDS011;3928;42.626;23.382;2023-03-14T02:41:22;9.03;;;6.40;;
7767;SDS011;3928;42.626;23.382;2023-03-14T02:43:49;11.83;;;6.37;;
7767;SDS011;3928;42.626;23.382;2023-03-14T02:46:17;11.60;;;7.10;;
7767;SDS011;3928;42.626;23.382;2023-03-14T02:48:47;11.47;;;7.30;;
7767;SDS011;3928;42.626;23.382;2023-03-14T02:51:17;13.77;;;6.87;;
7767;SDS011;3928;42.626;23.382;2023-03-14T02:53:44;10.77;;;7.40;;
7767;SDS011;3928;42.626;23.382;2023-03-14T02:56:11;12.23;;;7.13;;
7767;SDS011;3928;42.626;23.382;2023-03-14T02:58:37;13.07;;;8.53;;
7767;SDS011;3928;42.626;23.382;2023-03-14T03:01:05;17.03;;;10.10;;
7767;SDS011;3928;42.626;23.382;2023-03-14T03:03:33;15.70;;;9.57;;
7767;SDS011;3928;42.626;23.382;2023-03-14T03:06:00;17.07;;;10.13;;
7767;SDS011;3928;42.626;23.382;2023-03-14T03:08:27;18.30;;;11.03;;
7767;SDS011;3928;42.626;23.382;2023-03-14T03:10:56;17.50;;;10.47;;
7767;SDS011;3928;42.626;23.382;2023-03-14T03:13:23;15.80;;;10.80;;
7767;SDS011;3928;42.626;23.382;2023-03-14T03:15:50;18.67;;;10.57;;
7767;SDS011;3928;42.626;23.382;2023-03-14T03:18:17;15.03;;;10.07;;
7767;SDS011;3928;42.626;23.382;2023-03-14T03:20:45;15.90;;;10.43;;
7767;SDS011;3928;42.626;23.382;2023-03-14T03:23:12;17.17;;;11.30;;
7767;SDS011;3928;42.626;23.382;2023-03-14T03:25:39;16.17;;;10.20;;
7767;SDS011;3928;42.626;23.382;2023-03-14T03:28:06;15.70;;;9.83;;
7767;SDS011;3928;42.626;23.382;2023-03-14T03:30:34;19.27;;;10.70;;
7767;SDS011;3928;42.626;23.382;2023-03-14T03:33:04;16.93;;;10.70;;
7767;SDS011;3928;42.626;23.382;2023-03-14T03:35:31;17.70;;;10.17;;
7767;SDS011;3928;42.626;23.382;2023-03-14T03:37:59;13.77;;;9.37;;
7767;SDS011;3928;42.626;23.382;2023-03-14T03:40:26;14.43;;;9.93;;
7767;SDS011;3928;42.626;23.382;2023-03-14T03:42:53;18.93;;;9.37;;
7767;SDS011;3928;42.626;23.382;2023-03-14T03:45:19;12.80;;;9.53;;
7767;SDS011;3928;42.626;23.382;2023-03-14T03:47:46;17.57;;;9.43;;
7767;SDS011;3928;42.626;23.382;2023-03-14T03:50:13;15.00;;;9.60;;
7767;SDS011;3928;42.626;23.382;2023-03-14T03:52:40;11.90;;;9.37;;
7767;SDS011;3928;42.626;23.382;2023-03-14T03:55:08;12.60;;;9.10;;
7767;SDS011;3928;42.626;23.382;2023-03-14T03:57:35;13.43;;;9.33;;
7767;SDS011;3928;42.626;23.382;2023-03-14T04:00:02;12.77;;;8.73;;
7767;SDS011;3928;42.626;23.382;2023-03-14T04:02:30;15.30;;;10.03;;
7767;SDS011;3928;42.626;23.382;2023-03-14T04:04:57;15.03;;;9.47;;
7767;SDS011;3928;42.626;23.382;2023-03-14T04:07:24;14.53;;;9.70;;
7767;SDS011;3928;42.626;23.382;2023-03-14T04:09:50;16.27;;;10.13;;
7767;SDS011;3928;42.626;23.382;2023-03-14T04:12:18;15.83;;;10.00;;
7767;SDS011;3928;42.626;23.382;2023-03-14T04:14:45;15.47;;;9.47;;
7767;SDS011;3928;42.626;23.382;2023-03-14T04:17:12;13.53;;;9.43;;
7767;SDS011;3928;42.626;23.382;2023-03-14T04:19:39;16.03;;;8.93;;
7767;SDS011;3928;42.626;23.382;2023-03-14T04:22:07;14.50;;;9.20;;
7767;SDS011;3928;42.626;23.382;2023-03-14T04:24:33;12.73;;;9.00;;
7767;SDS011;3928;42.626;23.382;2023-03-14T04:27:00;14.43;;;8.37;;
7767;SDS011;3928;42.626;23.382;2023-03-14T04:29:28;13.37;;;9.63;;
7767;SDS011;3928;42.626;23.382;2023-03-14T04:31:55;11.83;;;8.37;;
7767;SDS011;3928;42.626;23.382;2023-03-14T04:34:22;15.83;;;9.23;;
7767;SDS011;3928;42.626;23.382;2023-03-14T04:36:49;13.20;;;7.80;;
7767;SDS011;3928;42.626;23.382;2023-03-14T04:39:15;14.17;;;7.90;;
7767;SDS011;3928;42.626;23.382;2023-03-14T04:41:43;12.57;;;7.83;;
7767;SDS011;3928;42.626;23.382;2023-03-14T04:44:10;13.17;;;7.53;;
7767;SDS011;3928;42.626;23.382;2023-03-14T04:46:38;13.73;;;8.37;;
7767;SDS011;3928;42.626;23.382;2023-03-14T04:49:05;13.73;;;8.83;;
7767;SDS011;3928;42.626;23.382;2023-03-14T04:51:32;8.20;;;6.23;;
7767;SDS011;3928;42.626;23.382;2023-03-14T04:53:59;11.67;;;7.43;;
7767;SDS011;3928;42.626;23.382;2023-03-14T04:56:25;8.87;;;6.60;;
7767;SDS011;3928;42.626;23.382;2023-03-14T04:58:52;9.67;;;7.40;;
7767;SDS011;3928;42.626;23.382;2023-03-14T05:01:19;11.13;;;7.63;;
7767;SDS011;3928;42.626;23.382;2023-03-14T05:03:47;11.97;;;7.67;;
7767;SDS011;3928;42.626;23.382;2023-03-14T05:06:14;10.67;;;6.90;;
7767;SDS011;3928;42.626;23.382;2023-03-14T05:08:41;9.47;;;6.83;;
7767;SDS011;3928;42.626;23.382;2023-03-14T05:11:09;11.20;;;6.80;;
7767;SDS011;3928;42.626;23.382;2023-03-14T05:13:36;11.37;;;7.30;;
7767;SDS011;3928;42.626;23.382;2023-03-14T05:16:03;11.43;;;6.20;;
7767;SDS011;3928;42.626;23.382;2023-03-14T05:18:31;9.37;;;6.00;;
7767;SDS011;3928;42.626;23.382;2023-03-14T05:21:00;7.03;;;5.97;;
7767;SDS011;3928;42.626;23.382;2023-03-14T05:23:27;9.27;;;6.33;;
7767;SDS011;3928;42.626;23.382;2023-03-14T05:25:54;10.63;;;6.53;;
7767;SDS011;3928;42.626;23.382;2023-03-14T05:28:20;8.17;;;5.57;;
7767;SDS011;3928;42.626;23.382;2023-03-14T05:30:47;10.50;;;6.50;;
7767;SDS011;3928;42.626;23.382;2023-03-14T05:33:15;7.63;;;6.43;;
7767;SDS011;3928;42.626;23.382;2023-03-14T05:35:41;17.50;;;6.10;;
7767;SDS011;3928;42.626;23.382;2023-03-14T05:38:10;9.73;;;7.00;;
7767;SDS011;3928;42.626;23.382;2023-03-14T05:40:37;7.10;;;6.10;;
7767;SDS011;3928;42.626;23.382;2023-03-14T05:43:04;10.27;;;7.17;;
7767;SDS011;3928;42.626;23.382;2023-03-14T05:45:33;9.27;;;6.77;;
7767;SDS011;3928;42.626;23.382;2023-03-14T05:48:00;13.70;;;6.57;;
7767;SDS011;3928;42.626;23.382;2023-03-14T05:50:26;8.50;;;6.70;;
7767;SDS011;3928;42.626;23.382;2023-03-14T05:52:53;9.17;;;6.60;;
7767;SDS011;3928;42.626;23.382;2023-03-14T05:55:21;7.83;;;6.53;;
7767;SDS011;3928;42.626;23.382;2023-03-14T05:57:48;9.87;;;7.67;;
7767;SDS011;3928;42.626;23.382;2023-03-14T06:00:16;11.20;;;7.43;;
7767;SDS011;3928;42.626;23.382;2023-03-14T06:02:43;10.87;;;7.97;;
7767;SDS011;3928;42.626;23.382;2023-03-14T06:05:10;8.07;;;6.23;;
7767;SDS011;3928;42.626;23.382;2023-03-14T06:07:37;10.17;;;6.47;;
7767;SDS011;3928;42.626;23.382;2023-03-14T06:10:05;9.50;;;6.80;;
7767;SDS011;3928;42.626;23.382;2023-03-14T06:12:33;11.50;;;7.00;;
7767;SDS011;3928;42.626;23.382;2023-03-14T06:15:00;8.50;;;6.87;;
7767;SDS011;3928;42.626;23.382;2023-03-14T06:17:27;10.67;;;6.73;;
7767;SDS011;3928;42.626;23.382;2023-03-14T06:19:54;7.90;;;6.30;;
7767;SDS011;3928;42.626;23.382;2023-03-14T06:22:21;9.83;;;6.80;;
7767;SDS011;3928;42.626;23.382;2023-03-14T06:24:47;8.90;;;6.43;;
7767;SDS011;3928;42.626;23.382;2023-03-14T06:27:14;8.47;;;6.17;;
7767;SDS011;3928;42.626;23.382;2023-03-14T06:29:42;14.63;;;6.60;;
7767;SDS011;3928;42.626;23.382;2023-03-14T06:32:09;10.63;;;6.57;;
7767;SDS011;3928;42.626;23.382;2023-03-14T06:34:36;9.17;;;6.70;;
7767;SDS011;3928;42.626;23.382;2023-03-14T06:37:03;12.33;;;6.97;;
7767;SDS011;3928;42.626;23.382;2023-03-14T06:39:30;9.67;;;6.80;;
7767;SDS011;3928;42.626;23.382;2023-03-14T06:41:57;12.10;;;7.40;;
7767;SDS011;3928;42.626;23.382;2023-03-14T06:44:24;9.90;;;6.77;;
7767;SDS011;3928;42.626;23.382;2023-03-14T06:46:52;12.07;;;6.33;;
7767;SDS011;3928;42.626;23.382;2023-03-14T06:49:19;8.33;;;6.20;;
7767;SDS011;3928;42.626;23.382;2023-03-14T06:51:46;8.37;;;6.03;;
7767;SDS011;3928;42.626;23.382;2023-03-14T06:54:13;9.20;;;6.40;;
7767;SDS011;3928;42.626;23.382;2023-03-14T06:56:41;7.00;;;6.30;;
7767;SDS011;3928;42.626;23.382;2023-03-14T06:59:08;7.70;;;6.00;;
7767;SDS011;3928;42.626;23.382;2023-03-14T07:01:34;9.60;;;6.33;;
7767;SDS011;3928;42.626;23.382;2023-03-14T07:04:03;9.10;;;5.80;;
7767;SDS011;3928;42.626;23.382;2023-03-14T07:06:29;7.90;;;5.70;;
7767;SDS011;3928;42.626;23.382;2023-03-14T07:08:56;9.40;;;6.30;;
7767;SDS011;3928;42.626;23.382;2023-03-14T07:11:23;7.97;;;5.90;;
7767;SDS011;3928;42.626;23.382;2023-03-14T07:13:50;8.30;;;6.20;;
7767;SDS011;3928;42.626;23.382;2023-03-14T07:16:17;22.43;;;11.57;;
7767;SDS011;3928;42.626;23.382;2023-03-14T07:18:44;122.93;;;69.30;;
7767;SDS011;3928;42.626;23.382;2023-03-14T07:21:13;95.53;;;60.77;;
7767;SDS011;3928;42.626;23.382;2023-03-14T07:23:39;34.43;;;24.80;;
7767;SDS011;3928;42.626;23.382;2023-03-14T07:26:06;15.70;;;10.40;;
7767;SDS011;3928;42.626;23.382;2023-03-14T07:28:33;13.70;;;9.13;;
7767;SDS011;3928;42.626;23.382;2023-03-14T07:31:00;13.40;;;7.70;;
7767;SDS011;3928;42.626;23.382;2023-03-14T07:33:26;14.30;;;9.23;;
7767;SDS011;3928;42.626;23.382;2023-03-14T07:35:53;12.80;;;8.77;;
7767;SDS011;3928;42.626;23.382;2023-03-14T07:38:21;16.27;;;8.60;;
7767;SDS011;3928;42.626;23.382;2023-03-14T07:40:48;14.60;;;7.87;;
7767;SDS011;3928;42.626;23.382;2023-03-14T07:43:15;12.00;;;8.20;;
7767;SDS011;3928;42.626;23.382;2023-03-14T07:45:44;16.90;;;7.73;;
7767;SDS011;3928;42.626;23.382;2023-03-14T07:48:12;11.87;;;7.53;;
7767;SDS011;3928;42.626;23.382;2023-03-14T07:50:38;11.23;;;7.17;;
7767;SDS011;3928;42.626;23.382;2023-03-14T07:53:05;9.33;;;7.50;;
7767;SDS011;3928;42.626;23.382;2023-03-14T07:55:33;11.33;;;7.87;;
7767;SDS011;3928;42.626;23.382;2023-03-14T07:58:00;10.10;;;6.93;;
7767;SDS011;3928;42.626;23.382;2023-03-14T08:00:27;10.87;;;7.27;;
7767;SDS011;3928;42.626;23.382;2023-03-14T08:02:54;11.43;;;6.77;;
7767;SDS011;3928;42.626;23.382;2023-03-14T08:05:20;10.93;;;7.07;;
7767;SDS011;3928;42.626;23.382;2023-03-14T08:07:47;10.50;;;7.33;;
7767;SDS011;3928;42.626;23.382;2023-03-14T08:10:14;14.97;;;8.03;;
7767;SDS011;3928;42.626;23.382;2023-03-14T08:12:48;13.03;;;7.93;;
7767;SDS011;3928;42.626;23.382;2023-03-14T08:15:15;13.47;;;7.93;;
7767;SDS011;3928;42.626;23.382;2023-03-14T08:17:42;14.50;;;7.43;;
7767;SDS011;3928;42.626;23.382;2023-03-14T08:20:09;12.43;;;8.75;;
7767;SDS011;3928;42.626;23.382;2023-03-14T08:22:38;14.47;;;8.93;;
7767;SDS011;3928;42.626;23.382;2023-03-14T08:25:05;18.42;;;8.45;;
7767;SDS011;3928;42.626;23.382;2023-03-14T08:27:32;13.25;;;8.85;;
7767;SDS011;3928;42.626;23.382;2023-03-14T08:30:00;31.77;;;19.20;;
7767;SDS011;3928;42.626;23.382;2023-03-14T08:32:27;17.83;;;9.52;;
7767;SDS011;3928;42.626;23.382;2023-03-14T08:34:55;21.80;;;12.70;;
7767;SDS011;3928;42.626;23.382;2023-03-14T08:37:22;21.35;;;10.77;;
7767;SDS011;3928;42.626;23.382;2023-03-14T08:39:49;18.80;;;10.68;;
7767;SDS011;3928;42.626;23.382;2023-03-14T08:42:16;16.70;;;11.65;;
7767;SDS011;3928;42.626;23.382;2023-03-14T08:44:43;18.85;;;10.98;;
7767;SDS011;3928;42.626;23.382;2023-03-14T08:47:11;18.60;;;11.45;;
7767;SDS011;3928;42.626;23.382;2023-03-14T08:49:38;21.35;;;12.50;;
7767;SDS011;3928;42.626;23.382;2023-03-14T08:52:05;17.85;;;11.20;;
7767;SDS011;3928;42.626;23.382;2023-03-14T08:54:32;15.65;;;11.73;;
7767;SDS011;3928;42.626;23.382;2023-03-14T08:56:59;20.40;;;12.50;;
7767;SDS011;3928;42.626;23.382;2023-03-14T08:59:26;24.08;;;11.88;;
7767;SDS011;3928;42.626;23.382;2023-03-14T09:01:52;15.57;;;11.40;;
7767;SDS011;3928;42.626;23.382;2023-03-14T09:04:21;19.50;;;11.95;;
7767;SDS011;3928;42.626;23.382;2023-03-14T09:06:48;17.98;;;11.63;;
7767;SDS011;3928;42.626;23.382;2023-03-14T09:09:15;17.70;;;11.43;;
7767;SDS011;3928;42.626;23.382;2023-03-14T09:11:42;21.10;;;11.43;;
7767;SDS011;3928;42.626;23.382;2023-03-14T09:14:09;14.38;;;9.98;;
7767;SDS011;3928;42.626;23.382;2023-03-14T09:16:35;15.52;;;10.90;;
7767;SDS011;3928;42.626;23.382;2023-03-14T09:19:02;18.00;;;10.88;;
7767;SDS011;3928;42.626;23.382;2023-03-14T09:21:30;14.88;;;10.25;;
7767;SDS011;3928;42.626;23.382;2023-03-14T09:23:57;17.45;;;10.48;;
7767;SDS011;3928;42.626;23.382;2023-03-14T09:26:24;16.90;;;10.85;;
7767;SDS011;3928;42.626;23.382;2023-03-14T09:28:51;15.95;;;9.95;;
7767;SDS011;3928;42.626;23.382;2023-03-14T09:31:18;11.95;;;8.68;;
7767;SDS011;3928;42.626;23.382;2023-03-14T09:33:45;17.85;;;10.60;;
7767;SDS011;3928;42.626;23.382;2023-03-14T09:36:11;13.10;;;8.55;;
7767;SDS011;3928;42.626;23.382;2023-03-14T09:38:40;11.00;;;8.30;;
7767;SDS011;3928;42.626;23.382;2023-03-14T09:41:12;11.13;;;8.93;;
7767;SDS011;3928;42.626;23.382;2023-03-14T09:43:42;10.48;;;7.85;;
7767;SDS011;3928;42.626;23.382;2023-03-14T09:46:12;10.30;;;6.80;;
7767;SDS011;3928;42.626;23.382;2023-03-14T09:48:40;11.75;;;7.80;;
7767;SDS011;3928;42.626;23.382;2023-03-14T09:51:07;9.23;;;7.10;;
7767;SDS011;3928;42.626;23.382;2023-03-14T09:53:43;8.90;;;6.90;;
7767;SDS011;3928;42.626;23.382;2023-03-14T09:56:12;15.77;;;6.88;;
7767;SDS011;3928;42.626;23.382;2023-03-14T09:58:44;10.88;;;7.47;;
7767;SDS011;3928;42.626;23.382;2023-03-14T10:01:17;9.77;;;7.32;;
7767;SDS011;3928;42.626;23.382;2023-03-14T10:03:49;11.75;;;7.28;;
7767;SDS011;3928;42.626;23.382;2023-03-14T10:06:20;20.10;;;14.63;;
7767;SDS011;3928;42.626;23.382;2023-03-14T10:08:51;19.42;;;13.10;;
7767;SDS011;3928;42.626;23.382;2023-03-14T10:11:18;11.88;;;7.22;;
7767;SDS011;3928;42.626;23.382;2023-03-14T10:13:52;9.27;;;6.65;;
7767;SDS011;3928;42.626;23.382;2023-03-14T10:16:30;13.52;;;7.20;;
7767;SDS011;3928;42.626;23.382;2023-03-14T10:19:01;8.80;;;6.35;;
7767;SDS011;3928;42.626;23.382;2023-03-14T10:21:30;10.15;;;7.03;;
7767;SDS011;3928;42.626;23.382;2023-03-14T10:24:09;8.48;;;6.38;;
7767;SDS011;3928;42.626;23.382;2023-03-14T10:26:43;8.85;;;6.82;;
7767;SDS011;3928;42.626;23.382;2023-03-14T10:29:13;10.05;;;6.13;;
7767;SDS011;3928;42.626;23.382;2023-03-14T10:31:48;8.98;;;5.93;;
7767;SDS011;3928;42.626;23.382;2023-03-14T10:34:20;10.80;;;5.82;;
7767;SDS011;3928;42.626;23.382;2023-03-14T10:36:53;8.27;;;6.82;;
7767;SDS011;3928;42.626;23.382;2023-03-14T10:39:27;6.97;;;5.85;;
7767;SDS011;3928;42.626;23.382;2023-03-14T10:42:03;9.48;;;5.10;;
7767;SDS011;3928;42.626;23.382;2023-03-14T10:44:33;7.88;;;5.25;;
7767;SDS011;3928;42.626;23.382;2023-03-14T10:47:02;11.05;;;4.95;;
7767;SDS011;3928;42.626;23.382;2023-03-14T10:49:31;6.55;;;5.10;;
7767;SDS011;3928;42.626;23.382;2023-03-14T10:52:12;9.25;;;5.30;;
7767;SDS011;3928;42.626;23.382;2023-03-14T10:54:43;8.52;;;5.90;;
7767;SDS011;3928;42.626;23.382;2023-03-14T10:57:13;6.65;;;4.63;;
7767;SDS011;3928;42.626;23.382;2023-03-14T10:59:41;7.80;;;4.50;;
7767;SDS011;3928;42.626;23.382;2023-03-14T11:02:13;15.48;;;5.78;;
7767;SDS011;3928;42.626;23.382;2023-03-14T11:04:54;4.97;;;3.60;;
7767;SDS011;3928;42.626;23.382;2023-03-14T11:07:30;5.72;;;4.13;;
7767;SDS011;3928;42.626;23.382;2023-03-14T11:10:07;7.38;;;3.50;;
7767;SDS011;3928;42.626;23.382;2023-03-14T11:12:41;5.65;;;3.67;;
7767;SDS011;3928;42.626;23.382;2023-03-14T11:15:29;4.45;;;3.83;;
7767;SDS011;3928;42.626;23.382;2023-03-14T11:18:06;7.95;;;4.00;;
7767;SDS011;3928;42.626;23.382;2023-03-14T11:20:45;5.68;;;4.35;;
7767;SDS011;3928;42.626;23.382;2023-03-14T11:23:20;5.22;;;4.18;;
7767;SDS011;3928;42.626;23.382;2023-03-14T11:25:51;4.40;;;3.83;;
7767;SDS011;3928;42.626;23.382;2023-03-14T11:28:25;13.23;;;10.60;;
7767;SDS011;3928;42.626;23.382;2023-03-14T11:31:00;8.63;;;4.40;;
7767;SDS011;3928;42.626;23.382;2023-03-14T11:33:38;8.05;;;4.10;;
7767;SDS011;3928;42.626;23.382;2023-03-14T11:36:11;6.20;;;5.18;;
7767;SDS011;3928;42.626;23.382;2023-03-14T11:38:46;6.57;;;3.50;;
7767;SDS011;3928;42.626;23.382;2023-03-14T11:41:17;4.05;;;3.13;;
7767;SDS011;3928;42.626;23.382;2023-03-14T11:43:51;4.25;;;3.47;;
7767;SDS011;3928;42.626;23.382;2023-03-14T11:46:21;7.25;;;3.42;;
7767;SDS011;3928;42.626;23.382;2023-03-14T11:48:56;4.05;;;3.35;;
7767;SDS011;3928;42.626;23.382;2023-03-14T11:51:27;3.72;;;3.15;;
7767;SDS011;3928;42.626;23.382;2023-03-14T11:54:01;3.70;;;3.38;;
7767;SDS011;3928;42.626;23.382;2023-03-14T11:56:36;4.35;;;3.13;;
7767;SDS011;3928;42.626;23.382;2023-03-14T11:59:08;6.60;;;3.45;;
7767;SDS011;3928;42.626;23.382;2023-03-14T12:01:45;2.75;;;2.55;;
7767;SDS011;3928;42.626;23.382;2023-03-14T12:04:20;5.38;;;4.00;;
7767;SDS011;3928;42.626;23.382;2023-03-14T12:07:08;3.88;;;3.42;;
7767;SDS011;3928;42.626;23.382;2023-03-14T12:09:44;7.22;;;3.75;;
7767;SDS011;3928;42.626;23.382;2023-03-14T12:12:13;4.50;;;3.00;;
7767;SDS011;3928;42.626;23.382;2023-03-14T12:14:45;3.60;;;3.15;;
7767;SDS011;3928;42.626;23.382;2023-03-14T12:17:18;4.47;;;3.22;;
7767;SDS011;3928;42.626;23.382;2023-03-14T12:19:47;3.92;;;3.03;;
7767;SDS011;3928;42.626;23.382;2023-03-14T12:22:21;11.13;;;8.30;;
7767;SDS011;3928;42.626;23.382;2023-03-14T12:24:54;5.90;;;4.95;;
7767;SDS011;3928;42.626;23.382;2023-03-14T12:27:40;18.83;;;14.10;;
7767;SDS011;3928;42.626;23.382;2023-03-14T12:30:23;16.52;;;11.95;;
7767;SDS011;3928;42.626;23.382;2023-03-14T12:35:59;2.97;;;2.47;;
7767;SDS011;3928;42.626;23.382;2023-03-14T12:38:32;5.15;;;2.80;;
7767;SDS011;3928;42.626;23.382;2023-03-14T12:41:19;9.80;;;3.38;;
7767;SDS011;3928;42.626;23.382;2023-03-14T12:43:50;7.60;;;4.28;;
7767;SDS011;3928;42.626;23.382;2023-03-14T12:46:21;6.40;;;4.00;;
7767;SDS011;3928;42.626;23.382;2023-03-14T12:48:54;4.13;;;3.28;;
7767;SDS011;3928;42.626;23.382;2023-03-14T12:51:28;3.95;;;3.05;;
7767;SDS011;3928;42.626;23.382;2023-03-14T12:54:15;2.97;;;2.65;;
7767;SDS011;3928;42.626;23.382;2023-03-14T12:57:09;3.10;;;2.65;;
7767;SDS011;3928;42.626;23.382;2023-03-14T12:59:48;11.55;;;10.27;;
7767;SDS011;3928;42.626;23.382;2023-03-14T13:02:20;6.60;;;5.90;;
7767;SDS011;3928;42.626;23.382;2023-03-14T13:04:50;3.63;;;2.70;;
7767;SDS011;3928;42.626;23.382;2023-03-14T13:07:29;4.22;;;2.90;;
7767;SDS011;3928;42.626;23.382;2023-03-14T13:12:47;3.90;;;2.80;;
7767;SDS011;3928;42.626;23.382;2023-03-14T13:15:21;5.50;;;2.70;;
7767;SDS011;3928;42.626;23.382;2023-03-14T13:17:53;4.53;;;2.53;;
7767;SDS011;3928;42.626;23.382;2023-03-14T13:20:24;3.05;;;2.22;;
7767;SDS011;3928;42.626;23.382;2023-03-14T13:22:55;12.20;;;9.57;;
7767;SDS011;3928;42.626;23.382;2023-03-14T13:25:23;16.42;;;14.32;;
7767;SDS011;3928;42.626;23.382;2023-03-14T13:27:52;5.07;;;2.97;;
7767;SDS011;3928;42.626;23.382;2023-03-14T13:30:22;3.97;;;2.28;;
7767;SDS011;3928;42.626;23.382;2023-03-14T13:32:51;3.53;;;2.70;;
7767;SDS011;3928;42.626;23.382;2023-03-14T13:35:21;2.88;;;2.08;;
7767;SDS011;3928;42.626;23.382;2023-03-14T13:37:54;2.72;;;2.45;;
7767;SDS011;3928;42.626;23.382;2023-03-14T13:40:26;4.40;;;3.08;;
7767;SDS011;3928;42.626;23.382;2023-03-14T13:43:04;8.30;;;5.28;;
7767;SDS011;3928;42.626;23.382;2023-03-14T13:45:44;4.75;;;3.40;;
7767;SDS011;3928;42.626;23.382;2023-03-14T13:48:15;4.72;;;2.80;;
7767;SDS011;3928;42.626;23.382;2023-03-14T13:50:46;4.22;;;2.60;;
7767;SDS011;3928;42.626;23.382;2023-03-14T13:53:17;3.15;;;2.83;;
7767;SDS011;3928;42.626;23.382;2023-03-14T13:55:44;7.03;;;2.63;;
7767;SDS011;3928;42.626;23.382;2023-03-14T13:58:12;3.05;;;2.45;;
7767;SDS011;3928;42.626;23.382;2023-03-14T14:00:54;8.13;;;5.32;;
7767;SDS011;3928;42.626;23.382;2023-03-14T14:03:26;7.20;;;5.05;;
7767;SDS011;3928;42.626;23.382;2023-03-14T14:05:55;17.85;;;12.23;;
7767;SDS011;3928;42.626;23.382;2023-03-14T14:08:23;5.82;;;4.47;;
7767;SDS011;3928;42.626;23.382;2023-03-14T14:10:52;3.47;;;2.78;;
7767;SDS011;3928;42.626;23.382;2023-03-14T14:13:23;3.22;;;2.60;;
7767;SDS011;3928;42.626;23.382;2023-03-14T14:15:52;3.10;;;2.53;;
7767;SDS011;3928;42.626;23.382;2023-03-14T14:18:25;4.55;;;2.83;;
7767;SDS011;3928;42.626;23.382;2023-03-14T14:20:54;4.38;;;3.55;;
7767;SDS011;3928;42.626;23.382;2023-03-14T14:23:22;8.57;;;7.32;;
7767;SDS011;3928;42.626;23.382;2023-03-14T14:25:54;7.07;;;5.63;;
7767;SDS011;3928;42.626;23.382;2023-03-14T14:28:24;5.10;;;3.92;;
7767;SDS011;3928;42.626;23.382;2023-03-14T14:31:05;2.70;;;2.22;;
7767;SDS011;3928;42.626;23.382;2023-03-14T14:33:46;2.40;;;2.20;;
7767;SDS011;3928;42.626;23.382;2023-03-14T14:36:20;3.45;;;2.60;;
7767;SDS011;3928;42.626;23.382;2023-03-14T14:38:50;3.45;;;2.60;;
7767;SDS011;3928;42.626;23.382;2023-03-14T14:41:18;3.65;;;2.42;;
7767;SDS011;3928;42.626;23.382;2023-03-14T14:43:46;2.20;;;1.88;;
7767;SDS011;3928;42.626;23.382;2023-03-14T14:46:16;4.15;;;2.22;;
7767;SDS011;3928;42.626;23.382;2023-03-14T14:48:45;3.80;;;2.00;;
7767;SDS011;3928;42.626;23.382;2023-03-14T14:51:22;3.30;;;2.20;;
7767;SDS011;3928;42.626;23.382;2023-03-14T14:53:59;6.00;;;2.42;;
7767;SDS011;3928;42.626;23.382;2023-03-14T14:56:28;2.15;;;1.95;;
7767;SDS011;3928;42.626;23.382;2023-03-14T14:58:57;6.35;;;2.28;;
7767;SDS011;3928;42.626;23.382;2023-03-14T15:01:30;4.18;;;2.35;;
7767;SDS011;3928;42.626;23.382;2023-03-14T15:03:59;3.97;;;2.30;;
7767;SDS011;3928;42.626;23.382;2023-03-14T15:06:28;4.25;;;2.10;;
7767;SDS011;3928;42.626;23.382;2023-03-14T15:08:56;3.58;;;2.17;;
7767;SDS011;3928;42.626;23.382;2023-03-14T15:11:24;2.05;;;1.85;;
7767;SDS011;3928;42.626;23.382;2023-03-14T15:13:52;3.53;;;2.00;;